Time;durP1;ratioP1;P1;durP2;ratioP2;P2;SDS_P1;SDS_P2;PMS_P1;PMS_P2;Temp;Humidity;BMP_temperature;BMP_pressure;BME280_temperature;BME280_humidity;BME280_pressure;Samples;Min_cycle;Max_cycle;Signal;HPM_P1;HPM_P2
2021/12/30 00:01:11;;;;;;;6.30;3.67;;;6.20;99.90;;;;;;5095433;28;20253;-81
2021/12/30 00:03:40;;;;;;;5.03;3.88;;;6.20;99.90;;;;;;5095579;28;20207;-81
2021/12/30 00:06:09;;;;;;;4.80;3.92;;;6.10;99.90;;;;;;5095447;28;20307;-81
2021/12/30 00:08:39;;;;;;;8.60;4.32;;;6.10;99.90;;;;;;5095622;28;20228;-81
2021/12/30 00:11:08;;;;;;;4.57;4.10;;;6.20;99.90;;;;;;5095327;28;20251;-81
2021/12/30 00:13:39;;;;;;;4.28;3.88;;;6.10;99.90;;;;;;5095348;28;20295;-81
2021/12/30 00:16:09;;;;;;;4.88;4.35;;;6.10;99.90;;;;;;5095842;28;20274;-81
2021/12/30 00:18:37;;;;;;;5.05;4.55;;;6.10;99.90;;;;;;5096124;28;20231;-81
2021/12/30 00:21:06;;;;;;;7.13;4.57;;;6.10;99.90;;;;;;5095608;28;20205;-81
2021/12/30 00:23:34;;;;;;;3.83;3.33;;;6.00;99.90;;;;;;5095899;28;20239;-81
2021/12/30 00:26:04;;;;;;;4.15;3.72;;;6.00;99.90;;;;;;5095945;28;20262;-81
2021/12/30 00:28:32;;;;;;;5.68;4.82;;;6.00;99.90;;;;;;5095583;28;20288;-85
2021/12/30 00:31:00;;;;;;;4.30;3.90;;;5.90;99.90;;;;;;5094889;28;20308;-85
2021/12/30 00:33:32;;;;;;;3.95;3.55;;;5.90;99.90;;;;;;5095428;28;20212;-85
2021/12/30 00:36:02;;;;;;;3.78;3.47;;;5.90;99.90;;;;;;5095284;28;20303;-85
2021/12/30 00:38:30;;;;;;;4.05;3.75;;;5.90;99.90;;;;;;5095296;28;20299;-85
2021/12/30 00:40:58;;;;;;;3.92;3.63;;;5.90;99.90;;;;;;5094300;28;20231;-85
2021/12/30 00:43:27;;;;;;;4.43;3.75;;;5.90;99.90;;;;;;5095640;28;20287;-85
2021/12/30 00:45:55;;;;;;;4.05;3.45;;;5.90;99.90;;;;;;5094962;28;20254;-85
2021/12/30 00:48:25;;;;;;;3.83;3.53;;;5.90;99.90;;;;;;5095416;28;20216;-85
2021/12/30 00:50:55;;;;;;;3.92;3.50;;;5.90;99.90;;;;;;5094330;28;20252;-85
2021/12/30 00:53:23;;;;;;;4.88;3.60;;;5.90;99.90;;;;;;5095242;28;20231;-85
2021/12/30 00:55:51;;;;;;;3.90;3.47;;;5.90;99.90;;;;;;5095032;28;20263;-85
2021/12/30 00:58:20;;;;;;;7.05;4.82;;;5.80;99.90;;;;;;5095347;28;20295;-82
2021/12/30 01:00:49;;;;;;;3.75;3.35;;;5.80;99.90;;;;;;5094915;28;20247;-82
2021/12/30 01:03:18;;;;;;;4.25;3.85;;;5.90;99.90;;;;;;5094778;28;20208;-81
2021/12/30 01:05:49;;;;;;;17.88;3.80;;;5.90;99.90;;;;;;5093418;28;20307;-82
2021/12/30 01:08:19;;;;;;;3.80;3.47;;;6.00;99.90;;;;;;5094543;28;20235;-85
2021/12/30 01:10:49;;;;;;;4.95;4.35;;;5.90;99.90;;;;;;5094323;28;20248;-85
2021/12/30 01:13:23;;;;;;;4.93;3.50;;;6.00;99.90;;;;;;5094896;28;20299;-85
2021/12/30 01:15:59;;;;;;;5.40;3.80;;;6.00;99.90;;;;;;5094732;28;20243;-85
2021/12/30 01:18:42;;;;;;;6.50;4.20;;;6.00;99.90;;;;;;5094847;28;20204;-85
2021/12/30 01:21:13;;;;;;;3.97;3.67;;;6.00;99.90;;;;;;5094537;28;20227;-85
2021/12/30 01:23:43;;;;;;;4.07;3.38;;;6.00;99.90;;;;;;5095351;28;20246;-81
2021/12/30 01:26:12;;;;;;;4.70;4.28;;;6.00;99.90;;;;;;5094561;28;20282;-81
2021/12/30 01:28:41;;;;;;;5.50;4.65;;;6.00;99.90;;;;;;5094322;28;20209;-82
2021/12/30 01:31:10;;;;;;;4.72;3.75;;;6.00;99.90;;;;;;5094272;28;20216;-82
2021/12/30 01:33:39;;;;;;;4.65;3.22;;;6.10;99.90;;;;;;5094292;28;20201;-82
2021/12/30 01:36:08;;;;;;;4.90;4.25;;;6.10;99.90;;;;;;5094089;28;20256;-82
2021/12/30 01:38:37;;;;;;;6.97;4.38;;;6.10;99.90;;;;;;5094142;28;20228;-85
2021/12/30 01:41:08;;;;;;;4.80;3.83;;;6.10;99.90;;;;;;5094045;28;20209;-86
2021/12/30 01:43:38;;;;;;;6.38;4.45;;;6.20;99.90;;;;;;5094218;28;20240;-85
2021/12/30 01:46:09;;;;;;;4.15;3.85;;;6.20;99.90;;;;;;5094053;28;20303;-82
2021/12/30 01:48:40;;;;;;;4.38;3.97;;;6.20;99.90;;;;;;5093706;28;20205;-85
2021/12/30 01:51:09;;;;;;;3.83;3.53;;;6.30;99.90;;;;;;5093559;28;20285;-82
2021/12/30 01:53:38;;;;;;;3.88;3.58;;;6.30;99.90;;;;;;5094056;28;20284;-82
2021/12/30 01:56:08;;;;;;;3.80;3.50;;;6.30;99.90;;;;;;5093589;28;20307;-81
2021/12/30 01:58:36;;;;;;;3.60;3.30;;;6.30;99.90;;;;;;5093777;28;20236;-82
2021/12/30 02:01:05;;;;;;;3.17;2.97;;;6.20;99.90;;;;;;5093749;28;20236;-82
2021/12/30 02:03:34;;;;;;;4.10;3.53;;;6.20;99.90;;;;;;5094127;28;20215;-82
2021/12/30 02:06:02;;;;;;;3.35;3.15;;;6.20;99.90;;;;;;5093841;28;20299;-84
2021/12/30 02:08:30;;;;;;;3.92;3.50;;;6.20;99.90;;;;;;5093613;28;20236;-84
2021/12/30 02:10:59;;;;;;;3.53;3.28;;;6.10;99.90;;;;;;5093113;28;20303;-84
2021/12/30 02:13:29;;;;;;;3.53;3.22;;;6.10;99.90;;;;;;5093562;28;20295;-84
2021/12/30 02:16:01;;;;;;;4.00;3.42;;;6.20;99.90;;;;;;5093252;28;20263;-84
2021/12/30 02:18:30;;;;;;;3.38;3.08;;;6.20;99.90;;;;;;5093417;28;20250;-84
2021/12/30 02:21:01;;;;;;;3.67;3.28;;;6.20;99.90;;;;;;5092958;28;20283;-83
2021/12/30 02:23:32;;;;;;;3.20;2.90;;;6.20;99.90;;;;;;5093612;28;20204;-82
2021/12/30 02:26:05;;;;;;;4.55;3.03;;;6.20;99.90;;;;;;5093558;28;20311;-83
2021/12/30 02:28:36;;;;;;;2.67;2.47;;;6.20;99.90;;;;;;5093425;28;20288;-82
2021/12/30 02:31:07;;;;;;;2.40;2.20;;;6.20;99.90;;;;;;5092912;28;20220;-83
2021/12/30 02:33:36;;;;;;;6.55;3.97;;;6.20;99.90;;;;;;5093085;28;20295;-83
2021/12/30 02:36:07;;;;;;;5.63;3.28;;;6.20;99.90;;;;;;5093280;28;20274;-82
2021/12/30 02:38:36;;;;;;;2.75;2.55;;;6.20;99.90;;;;;;5093047;28;20287;-86
2021/12/30 02:41:05;;;;;;;3.15;2.85;;;6.20;99.90;;;;;;5092879;28;20197;-86
2021/12/30 02:43:33;;;;;;;2.72;2.53;;;6.20;99.90;;;;;;5093216;28;20228;-86
2021/12/30 02:46:03;;;;;;;2.45;2.25;;;6.20;99.90;;;;;;5093254;28;20312;-87
2021/12/30 02:48:34;;;;;;;5.70;3.58;;;6.20;99.90;;;;;;5092897;28;20257;-86
2021/12/30 02:51:07;;;;;;;3.08;2.78;;;6.30;99.90;;;;;;5093223;28;20274;-83
2021/12/30 02:53:36;;;;;;;3.08;2.78;;;6.30;99.90;;;;;;5093445;28;20242;-83
2021/12/30 02:56:05;;;;;;;3.47;3.17;;;6.30;99.90;;;;;;5092772;28;20240;-82
2021/12/30 02:58:34;;;;;;;2.83;2.63;;;6.20;99.90;;;;;;5093079;28;20235;-82
2021/12/30 03:01:07;;;;;;;3.13;2.92;;;6.20;99.90;;;;;;5092457;28;20196;-82
2021/12/30 03:03:36;;;;;;;4.20;3.20;;;6.20;99.90;;;;;;5092877;28;20226;-82
2021/12/30 03:06:08;;;;;;;3.53;3.22;;;6.20;99.90;;;;;;5092860;28;20270;-83
2021/12/30 03:08:36;;;;;;;4.00;3.00;;;6.30;99.90;;;;;;5092379;28;20234;-82
2021/12/30 03:11:06;;;;;;;7.53;2.88;;;6.30;99.90;;;;;;5093184;28;20244;-82
2021/12/30 03:13:36;;;;;;;5.45;3.00;;;6.30;99.90;;;;;;5092911;28;20292;-83
2021/12/30 03:16:07;;;;;;;3.40;3.13;;;6.30;99.90;;;;;;5093365;28;20250;-82
2021/12/30 03:18:37;;;;;;;2.25;2.10;;;6.30;99.90;;;;;;5093053;28;20291;-83
2021/12/30 03:21:09;;;;;;;2.30;2.10;;;6.20;99.90;;;;;;5092583;28;20212;-86
2021/12/30 03:23:37;;;;;;;3.20;2.90;;;6.20;99.90;;;;;;5092937;28;20243;-85
2021/12/30 03:26:07;;;;;;;3.30;3.00;;;6.20;99.90;;;;;;5092914;28;20319;-86
2021/12/30 03:28:35;;;;;;;2.60;2.40;;;6.20;99.90;;;;;;5094525;28;20232;-86
2021/12/30 03:31:04;;;;;;;4.88;2.72;;;6.10;99.90;;;;;;5097581;28;20228;-86
2021/12/30 03:33:33;;;;;;;2.28;2.08;;;6.10;99.90;;;;;;5097599;28;20291;-86
2021/12/30 03:36:03;;;;;;;2.28;2.08;;;6.00;99.90;;;;;;5096694;28;20248;-83
2021/12/30 03:38:35;;;;;;;2.05;1.95;;;6.00;99.90;;;;;;5096664;28;20235;-86
2021/12/30 03:41:05;;;;;;;2.53;2.33;;;6.00;99.90;;;;;;5096297;28;20238;-86
2021/12/30 03:43:34;;;;;;;1.88;1.77;;;6.00;99.90;;;;;;5096281;28;20220;-86
2021/12/30 03:46:04;;;;;;;3.92;2.55;;;6.00;99.90;;;;;;5096614;28;20309;-86
2021/12/30 03:48:34;;;;;;;2.08;1.98;;;6.00;99.90;;;;;;5096688;28;20228;-86
2021/12/30 03:51:06;;;;;;;2.15;1.95;;;6.10;99.90;;;;;;5096475;28;20273;-86
2021/12/30 03:53:38;;;;;;;2.05;1.95;;;6.10;99.90;;;;;;5096951;28;20239;-86
2021/12/30 03:56:07;;;;;;;2.38;2.17;;;6.10;99.90;;;;;;5097238;28;20308;-86
2021/12/30 03:58:36;;;;;;;2.78;2.55;;;6.10;99.90;;;;;;5096469;28;20223;-86
2021/12/30 04:01:05;;;;;;;2.63;2.20;;;6.10;99.90;;;;;;5096295;28;20287;-83
2021/12/30 04:03:34;;;;;;;2.33;2.15;;;6.10;99.90;;;;;;5096495;28;20207;-83
2021/12/30 04:06:03;;;;;;;3.17;2.00;;;6.10;99.90;;;;;;5097049;28;20285;-88
2021/12/30 04:08:31;;;;;;;2.55;2.08;;;6.10;99.90;;;;;;5096699;28;20253;-85
2021/12/30 04:11:02;;;;;;;7.78;2.55;;;6.20;99.90;;;;;;5095712;28;20204;-86
2021/12/30 04:13:31;;;;;;;2.95;2.60;;;6.20;99.90;;;;;;5095684;28;20224;-83
2021/12/30 04:15:59;;;;;;;5.57;3.33;;;6.20;99.90;;;;;;5095758;28;20259;-83
2021/12/30 04:18:28;;;;;;;2.80;2.22;;;6.20;99.90;;;;;;5095652;28;20212;-83
2021/12/30 04:20:56;;;;;;;2.90;2.45;;;6.30;99.90;;;;;;5095421;28;20232;-83
2021/12/30 04:23:24;;;;;;;1.88;1.77;;;6.30;99.90;;;;;;5095890;28;20200;-83
2021/12/30 04:25:53;;;;;;;3.50;2.67;;;6.30;99.90;;;;;;5095250;28;20246;-83
2021/12/30 04:28:23;;;;;;;2.67;2.47;;;6.30;99.90;;;;;;5095869;28;20235;-83
2021/12/30 04:30:51;;;;;;;2.67;2.47;;;6.30;99.90;;;;;;5095332;28;20231;-83
2021/12/30 04:33:21;;;;;;;2.35;2.15;;;6.30;99.90;;;;;;5095378;28;20262;-83
2021/12/30 04:35:56;;;;;;;2.38;2.17;;;6.30;99.90;;;;;;5095290;28;20267;-86
2021/12/30 04:38:24;;;;;;;3.65;2.63;;;6.30;99.90;;;;;;5095583;28;20208;-86
2021/12/30 04:40:54;;;;;;;3.22;2.47;;;6.30;99.90;;;;;;5095311;28;20227;-86
2021/12/30 04:43:24;;;;;;;2.35;2.13;;;6.20;99.90;;;;;;5095557;28;20245;-86
2021/12/30 04:45:54;;;;;;;2.13;1.77;;;6.20;99.90;;;;;;5095424;28;20232;-86
2021/12/30 04:48:23;;;;;;;1.90;1.80;;;6.20;99.90;;;;;;5095559;28;20261;-86
2021/12/30 04:50:51;;;;;;;4.35;2.28;;;6.20;99.90;;;;;;5095179;28;20287;-86
2021/12/30 04:53:20;;;;;;;3.10;2.30;;;6.20;99.90;;;;;;5095552;28;20307;-86
2021/12/30 04:55:49;;;;;;;2.67;2.42;;;6.20;99.90;;;;;;5096125;28;20232;-86
2021/12/30 04:58:18;;;;;;;3.20;2.63;;;6.20;99.90;;;;;;5095189;28;20226;-86
2021/12/30 05:00:48;;;;;;;2.30;2.08;;;6.20;99.90;;;;;;5094534;28;20276;-83
2021/12/30 05:03:16;;;;;;;2.67;2.47;;;6.30;99.90;;;;;;5095124;28;20208;-82
2021/12/30 05:05:47;;;;;;;4.47;2.30;;;6.20;99.90;;;;;;5094953;28;20316;-82
2021/12/30 05:08:17;;;;;;;2.60;2.40;;;6.30;99.90;;;;;;5095123;28;20293;-82
2021/12/30 05:10:45;;;;;;;4.40;2.67;;;6.30;99.90;;;;;;5094142;28;20260;-81
2021/12/30 05:13:15;;;;;;;2.83;2.63;;;6.30;99.90;;;;;;5094542;28;20220;-81
2021/12/30 05:15:44;;;;;;;3.13;2.83;;;6.30;99.90;;;;;;5094495;28;20327;-81
2021/12/30 05:18:15;;;;;;;4.25;2.60;;;6.20;99.90;;;;;;5094547;28;20258;-81
2021/12/30 05:20:44;;;;;;;2.33;2.17;;;6.20;99.90;;;;;;5094349;28;20231;-81
2021/12/30 05:23:13;;;;;;;3.22;2.45;;;6.20;99.90;;;;;;5094185;28;20228;-81
2021/12/30 05:25:41;;;;;;;2.67;2.47;;;6.20;99.90;;;;;;5094248;28;20224;-81
2021/12/30 05:28:09;;;;;;;3.17;2.88;;;6.10;99.90;;;;;;5094187;28;20228;-81
2021/12/30 05:30:38;;;;;;;3.20;2.88;;;6.10;99.90;;;;;;5093908;28;20232;-81
2021/12/30 05:33:06;;;;;;;5.80;3.15;;;6.00;99.90;;;;;;5094298;28;20221;-86
2021/12/30 05:35:36;;;;;;;3.17;2.88;;;6.10;99.90;;;;;;5094602;28;20231;-81
2021/12/30 05:38:05;;;;;;;2.70;2.50;;;6.00;99.90;;;;;;5094285;28;20266;-81
2021/12/30 05:40:34;;;;;;;4.50;2.58;;;6.00;99.90;;;;;;5093321;28;20228;-81
2021/12/30 05:43:03;;;;;;;3.30;2.70;;;6.00;99.90;;;;;;5094155;28;20224;-81
2021/12/30 05:45:31;;;;;;;3.05;2.80;;;6.00;99.90;;;;;;5094021;28;20296;-81
2021/12/30 05:48:00;;;;;;;3.25;2.83;;;6.00;99.90;;;;;;5094057;28;20236;-81
2021/12/30 05:50:32;;;;;;;2.70;2.50;;;6.00;99.90;;;;;;5092879;28;20228;-81
2021/12/30 05:53:02;;;;;;;4.57;3.10;;;6.00;99.90;;;;;;5093590;28;20236;-81
2021/12/30 05:55:31;;;;;;;4.15;3.00;;;6.10;99.90;;;;;;5093835;28;20248;-81
2021/12/30 05:57:59;;;;;;;4.22;2.83;;;6.10;99.90;;;;;;5093993;28;20228;-81
2021/12/30 06:00:32;;;;;;;5.95;3.17;;;6.10;99.90;;;;;;5093733;28;20220;-81
2021/12/30 06:03:01;;;;;;;3.15;2.95;;;6.10;99.90;;;;;;5093847;28;20295;-85
2021/12/30 06:05:30;;;;;;;4.95;3.72;;;6.10;99.90;;;;;;5093349;28;20303;-86
2021/12/30 06:07:58;;;;;;;3.78;3.42;;;6.10;99.90;;;;;;5093674;28;20231;-86
2021/12/30 06:10:29;;;;;;;4.72;2.97;;;6.10;99.90;;;;;;5093211;28;20268;-85
2021/12/30 06:12:57;;;;;;;3.83;2.97;;;6.10;99.90;;;;;;5093423;28;20212;-86
2021/12/30 06:15:26;;;;;;;2.72;2.53;;;6.00;99.90;;;;;;5093526;28;20254;-86
2021/12/30 06:17:54;;;;;;;5.93;3.83;;;6.00;99.90;;;;;;5093557;28;20246;-86
2021/12/30 06:20:24;;;;;;;4.03;3.63;;;6.00;99.90;;;;;;5092980;28;20329;-81
2021/12/30 06:22:52;;;;;;;5.70;3.90;;;6.00;99.90;;;;;;5093330;28;20208;-81
2021/12/30 06:25:20;;;;;;;4.50;4.13;;;6.10;99.90;;;;;;5093257;28;20247;-81
2021/12/30 06:27:50;;;;;;;5.97;5.38;;;6.10;99.90;;;;;;5093042;28;20228;-81
2021/12/30 06:30:18;;;;;;;4.70;4.38;;;6.10;99.90;;;;;;5092487;28;20227;-81
2021/12/30 06:32:47;;;;;;;9.20;4.88;;;6.00;99.90;;;;;;5092901;28;20265;-81
2021/12/30 06:35:16;;;;;;;5.07;4.63;;;6.00;99.90;;;;;;5093120;28;20255;-86
2021/12/30 06:37:44;;;;;;;9.27;5.70;;;6.10;99.90;;;;;;5093362;28;20237;-86
2021/12/30 06:40:14;;;;;;;5.57;4.63;;;6.10;99.90;;;;;;5092790;28;20291;-86
2021/12/30 06:42:44;;;;;;;4.50;4.10;;;6.10;99.90;;;;;;5092918;28;20287;-86
2021/12/30 06:45:14;;;;;;;5.47;4.97;;;6.10;99.90;;;;;;5092981;28;20228;-86
2021/12/30 06:47:44;;;;;;;7.45;6.70;;;6.10;99.90;;;;;;5092878;28;20269;-86
2021/12/30 06:50:13;;;;;;;7.47;6.78;;;6.20;99.90;;;;;;5092735;28;20200;-86
2021/12/30 06:52:43;;;;;;;10.85;8.18;;;6.20;99.90;;;;;;5092765;28;20228;-86
2021/12/30 06:55:12;;;;;;;7.10;6.38;;;6.20;99.90;;;;;;5092696;28;20224;-86
2021/12/30 06:57:41;;;;;;;6.28;5.68;;;6.20;99.90;;;;;;5092232;28;20228;-86
2021/12/30 07:00:14;;;;;;;6.13;5.50;;;6.30;99.90;;;;;;5092783;28;20271;-86
2021/12/30 07:02:44;;;;;;;5.78;5.28;;;6.30;99.90;;;;;;5091847;28;20284;-87
2021/12/30 07:05:13;;;;;;;8.50;7.63;;;6.30;99.90;;;;;;5092753;28;20280;-86
2021/12/30 07:07:43;;;;;;;7.68;6.97;;;6.30;99.90;;;;;;5092644;28;20251;-86
2021/12/30 07:10:12;;;;;;;6.30;5.70;;;6.40;99.90;;;;;;5091905;28;20204;-86
2021/12/30 07:12:40;;;;;;;6.05;5.32;;;6.40;99.90;;;;;;5092831;28;20247;-86
2021/12/30 07:15:09;;;;;;;9.02;5.88;;;6.50;99.90;;;;;;5092486;28;20243;-81
2021/12/30 07:17:40;;;;;;;6.45;5.85;;;6.50;99.90;;;;;;5092688;28;20228;-81
2021/12/30 07:20:09;;;;;;;6.05;5.55;;;6.50;99.90;;;;;;5092095;28;20232;-81
2021/12/30 07:22:38;;;;;;;8.57;6.30;;;6.60;99.90;;;;;;5092447;28;20308;-81
2021/12/30 07:25:16;;;;;;;6.43;5.82;;;6.60;99.90;;;;;;5092467;28;20220;-81
2021/12/30 07:27:48;;;;;;;6.82;5.00;;;6.60;99.90;;;;;;5092413;28;20224;-81
2021/12/30 07:30:18;;;;;;;6.18;5.55;;;6.70;99.90;;;;;;5092394;28;20204;-86
2021/12/30 07:32:48;;;;;;;8.68;6.07;;;6.70;99.90;;;;;;5092406;28;20232;-86
2021/12/30 07:35:18;;;;;;;5.68;5.13;;;6.70;99.90;;;;;;5091952;28;20235;-86
2021/12/30 07:37:47;;;;;;;4.55;4.18;;;6.80;99.90;;;;;;5092794;28;20220;-86
2021/12/30 07:40:17;;;;;;;5.40;4.90;;;6.80;99.90;;;;;;5091729;28;20204;-86
2021/12/30 07:42:46;;;;;;;5.90;5.28;;;6.80;99.90;;;;;;5092345;28;20200;-86
2021/12/30 07:45:14;;;;;;;5.35;4.47;;;6.80;99.90;;;;;;5092234;28;20251;-86
2021/12/30 07:47:49;;;;;;;4.82;4.35;;;6.90;99.90;;;;;;5092084;28;20233;-86
2021/12/30 07:50:17;;;;;;;4.82;4.43;;;6.90;99.90;;;;;;5091967;28;20208;-86
2021/12/30 07:52:45;;;;;;;5.72;4.70;;;6.90;99.90;;;;;;5092503;28;20204;-86
2021/12/30 07:55:14;;;;;;;4.75;4.35;;;6.90;99.90;;;;;;5091904;28;20319;-86
2021/12/30 07:57:43;;;;;;;6.15;5.63;;;6.90;99.90;;;;;;5092022;28;20231;-86
2021/12/30 08:00:15;;;;;;;5.72;5.22;;;6.90;99.90;;;;;;5091593;28;20296;-86
2021/12/30 08:02:44;;;;;;;5.22;4.82;;;7.00;99.90;;;;;;5092123;28;20232;-86
2021/12/30 08:05:17;;;;;;;3.88;3.58;;;7.00;99.90;;;;;;5092349;28;20285;-86
2021/12/30 08:07:47;;;;;;;4.65;4.00;;;7.20;99.90;;;;;;5091598;28;20232;-86
2021/12/30 08:10:18;;;;;;;3.55;3.25;;;7.50;99.90;;;;;;5091611;28;20219;-86
2021/12/30 08:12:48;;;;;;;5.28;3.03;;;7.90;99.90;;;;;;5091918;28;20213;-86
2021/12/30 08:15:18;;;;;;;2.25;2.15;;;8.20;99.90;;;;;;5094502;28;20320;-85
2021/12/30 08:17:47;;;;;;;2.92;2.72;;;8.40;99.90;;;;;;5096540;28;20231;-88
2021/12/30 08:20:18;;;;;;;2.22;2.10;;;8.50;99.90;;;;;;5095246;28;20283;-86
2021/12/30 08:22:47;;;;;;;2.42;2.22;;;8.70;99.90;;;;;;5096087;28;20247;-86
2021/12/30 08:25:16;;;;;;;2.25;2.13;;;8.80;99.90;;;;;;5095474;28;20225;-86
2021/12/30 08:27:45;;;;;;;2.35;2.15;;;8.80;99.90;;;;;;5095614;28;20296;-86
2021/12/30 08:30:15;;;;;;;11.50;2.92;;;8.90;99.90;;;;;;5095187;28;20209;-86
2021/12/30 08:32:45;;;;;;;1.95;1.83;;;9.00;99.90;;;;;;5095669;28;20232;-86
2021/12/30 08:35:15;;;;;;;2.45;2.25;;;9.10;99.90;;;;;;5095391;28;20286;-86
2021/12/30 08:37:45;;;;;;;3.60;2.03;;;9.20;99.90;;;;;;5095211;28;20298;-86
2021/12/30 08:40:16;;;;;;;1.90;1.75;;;9.30;99.90;;;;;;5094916;28;20235;-86
2021/12/30 08:42:45;;;;;;;1.60;1.50;;;9.40;99.90;;;;;;5095333;28;20235;-86
2021/12/30 08:45:15;;;;;;;1.83;1.70;;;9.50;99.90;;;;;;5095282;28;20244;-86
2021/12/30 08:47:44;;;;;;;2.20;1.92;;;9.50;99.90;;;;;;5095602;28;20207;-86
2021/12/30 08:50:15;;;;;;;1.67;1.58;;;9.70;99.90;;;;;;5094611;28;20254;-86
2021/12/30 08:52:46;;;;;;;1.80;1.70;;;9.70;99.90;;;;;;5095061;28;20209;-86
2021/12/30 08:55:16;;;;;;;1.35;1.33;;;9.80;99.90;;;;;;5094992;28;20303;-86
2021/12/30 08:57:44;;;;;;;1.45;1.35;;;9.80;99.90;;;;;;5095075;28;20243;-81
2021/12/30 09:00:16;;;;;;;1.63;1.50;;;9.90;99.90;;;;;;5094940;28;20295;-81
2021/12/30 09:02:44;;;;;;;1.45;1.38;;;10.00;99.90;;;;;;5095108;28;20292;-81
2021/12/30 09:05:13;;;;;;;2.00;1.88;;;10.10;99.90;;;;;;5094967;28;20320;-81
2021/12/30 09:07:41;;;;;;;1.45;1.35;;;10.10;99.90;;;;;;5094548;28;20232;-81
2021/12/30 09:10:14;;;;;;;1.17;1.17;;;10.20;99.90;;;;;;5094182;28;20197;-81
2021/12/30 09:12:43;;;;;;;1.38;1.15;;;10.20;99.90;;;;;;5094690;28;20296;-81
2021/12/30 09:15:21;;;;;;;1.10;1.10;;;10.20;99.90;;;;;;5094610;28;20251;-81
2021/12/30 09:17:50;;;;;;;2.40;1.70;;;10.30;99.90;;;;;;5094673;28;20223;-81
2021/12/30 09:20:20;;;;;;;0.80;0.80;;;10.30;99.90;;;;;;5094112;28;20242;-81
2021/12/30 09:22:49;;;;;;;1.02;1.02;;;10.50;99.90;;;;;;5094845;28;20262;-86
2021/12/30 09:25:23;;;;;;;1.23;1.13;;;10.60;99.90;;;;;;5094034;28;20224;-86
2021/12/30 09:27:54;;;;;;;1.38;1.27;;;10.60;99.90;;;;;;5094395;28;20215;-87
2021/12/30 09:30:23;;;;;;;4.22;1.75;;;10.70;99.90;;;;;;5094248;28;20332;-87
2021/12/30 09:32:53;;;;;;;1.48;1.38;;;10.80;99.90;;;;;;5094552;28;20241;-87
2021/12/30 09:35:21;;;;;;;3.20;2.78;;;10.80;99.90;;;;;;5094089;28;20247;-81
2021/12/30 09:37:50;;;;;;;4.30;3.90;;;10.80;99.90;;;;;;5094288;28;20262;-81
2021/12/30 09:40:21;;;;;;;5.60;4.05;;;10.80;99.90;;;;;;5093713;28;20292;-87
2021/12/30 09:43:01;;;;;;;3.67;3.38;;;10.70;99.90;;;;;;5094234;28;20254;-87
2021/12/30 09:45:30;;;;;;;6.85;6.13;;;10.60;99.90;;;;;;5093921;28;20236;-87
2021/12/30 09:48:00;;;;;;;5.75;4.13;;;10.50;99.90;;;;;;5094051;28;20288;-86
2021/12/30 09:50:32;;;;;;;4.05;3.65;;;10.40;99.90;;;;;;5093441;28;20251;-87
2021/12/30 09:53:01;;;;;;;4.65;4.25;;;10.40;99.90;;;;;;5094165;28;20238;-81
2021/12/30 09:55:32;;;;;;;4.22;3.92;;;10.40;99.90;;;;;;5093732;28;20239;-81
2021/12/30 09:58:01;;;;;;;6.60;4.00;;;10.50;99.90;;;;;;5093656;28;20208;-81
2021/12/30 10:00:30;;;;;;;2.72;2.53;;;10.60;99.90;;;;;;5093144;28;20228;-88
2021/12/30 10:02:59;;;;;;;2.72;2.20;;;10.70;99.90;;;;;;5093576;28;20234;-87
2021/12/30 10:05:30;;;;;;;2.50;2.03;;;10.90;99.90;;;;;;5093718;28;20217;-87
2021/12/30 10:08:20;;;;;;;2.20;2.00;;;11.00;99.90;;;;;;5093812;28;20249;-87
2021/12/30 10:10:51;;;;;;;3.72;1.55;;;11.10;99.90;;;;;;5093470;28;20211;-87
2021/12/30 10:13:26;;;;;;;1.55;1.45;;;11.20;99.90;;;;;;5093600;28;20215;-87
2021/12/30 10:16:00;;;;;;;3.50;2.03;;;11.20;99.90;;;;;;5093436;28;20243;-87
2021/12/30 10:18:44;;;;;;;1.75;1.60;;;11.30;99.90;;;;;;5094114;28;20202;-87
2021/12/30 10:21:14;;;;;;;2.17;1.40;;;11.40;99.90;;;;;;5093712;28;20255;-87
2021/12/30 10:23:48;;;;;;;2.30;1.63;;;11.40;99.90;;;;;;5093600;28;20208;-87
2021/12/30 10:26:18;;;;;;;1.60;1.50;;;11.50;99.90;;;;;;5093425;28;20244;-87
2021/12/30 10:28:50;;;;;;;1.83;1.58;;;11.50;99.90;;;;;;5092804;28;20277;-87
2021/12/30 10:31:22;;;;;;;1.60;1.50;;;11.80;99.90;;;;;;5093829;28;20243;-87
2021/12/30 10:33:57;;;;;;;1.20;1.10;;;12.30;99.90;;;;;;5093165;28;20205;-87
2021/12/30 10:36:28;;;;;;;1.85;1.55;;;12.60;99.90;;;;;;5092961;28;20256;-87
2021/12/30 10:39:15;;;;;;;0.93;0.93;;;12.70;99.90;;;;;;5092636;28;20231;-82
2021/12/30 10:41:46;;;;;;;1.27;1.20;;;12.70;99.90;;;;;;5092643;28;20303;-81
2021/12/30 10:44:15;;;;;;;1.25;1.15;;;12.70;99.90;;;;;;5093119;28;20287;-81
2021/12/30 10:46:44;;;;;;;1.77;1.67;;;12.80;99.90;;;;;;5092780;28;20247;-81
2021/12/30 10:49:20;;;;;;;1.17;1.17;;;12.80;99.90;;;;;;5092760;28;20235;-87
2021/12/30 10:51:51;;;;;;;1.98;1.70;;;12.80;99.90;;;;;;5093352;28;20212;-87
2021/12/30 10:54:21;;;;;;;1.40;1.30;;;12.80;99.90;;;;;;5093311;28;20204;-87
2021/12/30 10:56:56;;;;;;;1.80;1.70;;;12.90;99.90;;;;;;5092603;28;20255;-87
2021/12/30 10:59:27;;;;;;;4.43;1.83;;;13.10;99.90;;;;;;5092181;28;20287;-87
2021/12/30 11:02:00;;;;;;;2.20;1.98;;;13.50;99.90;;;;;;5093305;28;20243;-87
2021/12/30 11:04:37;;;;;;;2.30;1.63;;;14.20;99.90;;;;;;5092911;28;20226;-87
2021/12/30 11:07:06;;;;;;;2.00;1.90;;;14.70;99.90;;;;;;5092611;28;20235;-82
2021/12/30 11:09:34;;;;;;;2.03;1.83;;;15.20;99.90;;;;;;5092431;28;20286;-82
2021/12/30 11:12:07;;;;;;;5.85;2.97;;;15.80;99.90;;;;;;5092766;28;20295;-82
2021/12/30 11:14:39;;;;;;;2.13;1.92;;;16.40;99.90;;;;;;5092517;28;20208;-82
2021/12/30 11:17:12;;;;;;;1.95;1.85;;;17.10;99.90;;;;;;5092277;28;20247;-87
2021/12/30 11:19:50;;;;;;;1.70;1.60;;;17.50;99.90;;;;;;5091896;28;20215;-87
2021/12/30 11:22:20;;;;;;;1.70;1.60;;;18.00;99.90;;;;;;5092590;28;20235;-87
2021/12/30 11:24:50;;;;;;;1.10;1.10;;;18.20;99.90;;;;;;5092732;28;20284;-82
2021/12/30 11:27:21;;;;;;;1.60;1.50;;;17.70;99.90;;;;;;5092680;28;20235;-82
2021/12/30 11:29:53;;;;;;;1.50;1.40;;;17.30;99.90;;;;;;5092124;28;20232;-82
2021/12/30 11:32:24;;;;;;;3.60;1.23;;;17.50;99.90;;;;;;5092509;28;20228;-82
2021/12/30 11:34:53;;;;;;;1.30;1.30;;;17.60;99.90;;;;;;5092944;28;20224;-82
2021/12/30 11:37:23;;;;;;;1.85;1.50;;;17.40;99.90;;;;;;5092285;28;20270;-82
2021/12/30 11:39:54;;;;;;;1.75;1.30;;;17.70;99.90;;;;;;5092017;28;20223;-87
2021/12/30 11:42:27;;;;;;;1.50;1.40;;;17.90;99.90;;;;;;5092350;28;20244;-87
2021/12/30 11:44:58;;;;;;;1.73;1.45;;;18.00;99.90;;;;;;5092325;28;20232;-88
2021/12/30 11:47:44;;;;;;;1.20;1.20;;;18.00;99.90;;;;;;5092192;28;20212;-87
2021/12/30 11:50:18;;;;;;;1.27;1.17;;;17.40;99.90;;;;;;5094507;28;20292;-87
2021/12/30 11:53:07;;;;;;;1.48;1.38;;;16.80;99.90;;;;;;5096360;28;20296;-87
2021/12/30 11:55:50;;;;;;;1.35;1.30;;;16.00;99.90;;;;;;5096066;28;20228;-87
2021/12/30 11:58:45;;;;;;;1.02;1.02;;;15.70;99.90;;;;;;5096158;28;20224;-82
2021/12/30 12:01:37;;;;;;;2.20;1.42;;;15.60;99.90;;;;;;5096462;28;20276;-87
2021/12/30 12:04:15;;;;;;;1.30;1.20;;;15.50;99.90;;;;;;5096138;28;20200;-87
2021/12/30 12:06:59;;;;;;;0.98;0.98;;;15.50;99.90;;;;;;5096114;28;20220;-87
2021/12/30 12:09:48;;;;;;;1.60;1.50;;;15.40;99.90;;;;;;5095275;28;20200;-87
2021/12/30 12:12:37;;;;;;;1.63;1.52;;;15.20;99.90;;;;;;5096242;28;20200;-87
2021/12/30 12:15:08;;;;;;;1.92;1.67;;;15.20;99.90;;;;;;5096003;28;20259;-87
2021/12/30 12:17:40;;;;;;;1.48;1.38;;;15.50;99.90;;;;;;5095781;28;20311;-86
2021/12/30 12:20:19;;;;;;;1.40;1.30;;;15.90;99.90;;;;;;5095086;28;20240;-87
2021/12/30 12:22:47;;;;;;;1.25;1.25;;;16.50;99.90;;;;;;5096132;28;20242;-86
2021/12/30 12:25:18;;;;;;;1.15;1.10;;;16.90;99.90;;;;;;5096400;28;20220;-86
2021/12/30 12:27:49;;;;;;;1.40;1.30;;;17.00;99.90;;;;;;5096036;28;20224;-82
2021/12/30 12:30:31;;;;;;;1.33;1.23;;;17.00;99.90;;;;;;5095122;28;20204;-82
2021/12/30 12:33:21;;;;;;;1.23;1.13;;;16.60;99.90;;;;;;5095735;28;20204;-82
2021/12/30 12:35:49;;;;;;;1.00;1.00;;;16.20;99.90;;;;;;5095147;28;20225;-82
2021/12/30 12:38:39;;;;;;;1.65;1.38;;;15.80;99.90;;;;;;5095577;28;20287;-86
2021/12/30 12:41:21;;;;;;;8.60;1.58;;;15.40;99.90;;;;;;5094797;28;20224;-86
2021/12/30 12:43:57;;;;;;;1.45;1.35;;;15.30;99.90;;;;;;5095795;28;20216;-87
2021/12/30 12:46:44;;;;;;;1.88;1.63;;;15.20;99.90;;;;;;5095347;28;20244;-86
2021/12/30 12:49:14;;;;;;;2.08;1.52;;;15.20;99.90;;;;;;5094656;28;20216;-86
2021/12/30 12:51:53;;;;;;;1.30;1.25;;;15.10;99.90;;;;;;5095487;28;20204;-82
2021/12/30 12:54:38;;;;;;;2.05;1.63;;;15.10;99.90;;;;;;5095439;28;20231;-82
2021/12/30 12:57:09;;;;;;;3.05;1.67;;;15.10;99.90;;;;;;5094688;28;20300;-82
2021/12/30 12:59:39;;;;;;;1.73;1.63;;;15.10;99.90;;;;;;5094550;28;20312;-82
2021/12/30 13:02:10;;;;;;;2.03;1.48;;;15.40;99.90;;;;;;5093299;28;20231;-82
2021/12/30 13:04:39;;;;;;;1.73;1.63;;;15.90;99.90;;;;;;5094718;28;20262;-87
2021/12/30 13:07:10;;;;;;;1.35;1.25;;;16.50;99.90;;;;;;5094948;28;20208;-87
2021/12/30 13:09:39;;;;;;;1.50;1.40;;;16.80;99.90;;;;;;5093949;28;20204;-86
2021/12/30 13:12:08;;;;;;;1.73;1.50;;;17.00;99.90;;;;;;5094758;28;20197;-87